Time;durP1;ratioP1;P1;durP2;ratioP2;P2;SDS_P1;SDS_P2;PMS_P1;PMS_P2;Temp;Humidity;BMP_temperature;BMP_pressure;BME280_temperature;BME280_humidity;BME280_pressure;Samples;Min_cycle;Max_cycle;Signal;HPM_P1;HPM_P2
2023/10/07 00:02:13;;;;;;;20.80;5.30;;;16.10;99.90;;;;;;5090111;28;20044;-59
2023/10/07 00:04:44;;;;;;;20.05;5.43;;;16.00;99.90;;;;;;5093104;28;20126;-59
2023/10/07 00:07:11;;;;;;;22.60;5.47;;;16.20;99.90;;;;;;5092943;28;20074;-60
2023/10/07 00:09:44;;;;;;;24.00;5.55;;;16.10;99.90;;;;;;5092742;28;20044;-59
2023/10/07 00:12:16;;;;;;;23.88;6.10;;;16.20;99.90;;;;;;5092713;28;20048;-59
2023/10/07 00:14:43;;;;;;;16.65;5.13;;;16.20;99.90;;;;;;5112858;28;20088;-60
2023/10/07 00:17:18;;;;;;;22.70;5.93;;;16.20;99.90;;;;;;5111569;28;20042;-58
2023/10/07 00:19:46;;;;;;;19.45;5.60;;;16.10;99.90;;;;;;5111814;28;20044;-60
2023/10/07 00:22:14;;;;;;;16.73;5.45;;;16.30;99.90;;;;;;5111877;28;20058;-61
2023/10/07 00:24:45;;;;;;;20.08;5.63;;;16.20;99.90;;;;;;5112034;28;20043;-61
2023/10/07 00:27:44;;;;;;;19.13;5.07;;;16.30;99.90;;;;;;5113275;28;20088;-58
2023/10/07 00:30:12;;;;;;;15.35;5.03;;;16.40;99.90;;;;;;5109606;28;20040;-60
2023/10/07 00:32:38;;;;;;;20.27;5.78;;;16.20;99.90;;;;;;5112655;28;20035;-58
2023/10/07 00:35:06;;;;;;;20.35;5.45;;;16.40;99.90;;;;;;5113272;28;20137;-57
2023/10/07 00:37:37;;;;;;;18.60;5.20;;;16.20;99.90;;;;;;5102429;28;20442;-60
2023/10/07 00:40:30;;;;;;;22.67;5.53;;;16.40;99.90;;;;;;5091983;28;20136;-57
2023/10/07 00:42:57;;;;;;;19.52;5.30;;;16.30;99.90;;;;;;5099632;28;20051;-62
2023/10/07 00:45:24;;;;;;;17.35;5.38;;;16.20;99.90;;;;;;5110014;28;20387;-61
2023/10/07 00:47:52;;;;;;;17.80;5.30;;;16.40;99.90;;;;;;5112409;28;20043;-61
2023/10/07 00:50:25;;;;;;;22.27;4.25;;;16.40;99.90;;;;;;5112542;28;20042;-61
2023/10/07 00:55:28;;;;;;;16.70;5.07;;;16.50;99.90;;;;;;5091689;28;20089;-59
2023/10/07 00:58:07;;;;;;;15.68;5.13;;;16.30;99.90;;;;;;5092173;28;20112;-60
2023/10/07 01:00:47;;;;;;;17.65;5.65;;;16.50;99.90;;;;;;5092098;28;20039;-61
2023/10/07 01:03:18;;;;;;;18.63;5.72;;;16.50;99.90;;;;;;5092012;28;20125;-60
2023/10/07 01:08:26;;;;;;;19.05;5.80;;;16.40;99.90;;;;;;5112116;28;20051;-61
2023/10/07 01:11:07;;;;;;;18.08;6.40;;;16.30;99.90;;;;;;5107777;28;20380;-62
2023/10/07 01:13:35;;;;;;;16.27;5.38;;;16.40;99.90;;;;;;5091135;28;20454;-61
2023/10/07 01:16:07;;;;;;;15.52;5.15;;;16.50;99.90;;;;;;5091191;28;20036;-60
2023/10/07 01:18:38;;;;;;;17.75;5.75;;;16.60;99.90;;;;;;5095016;28;20035;-64
2023/10/07 01:21:14;;;;;;;14.75;5.10;;;16.60;99.90;;;;;;5090299;28;20054;-59
2023/10/07 01:23:44;;;;;;;15.30;4.95;;;16.60;99.90;;;;;;5078785;28;20279;-60
2023/10/07 01:26:21;;;;;;;18.48;5.22;;;16.60;99.90;;;;;;5088150;28;20169;-60
2023/10/07 01:28:49;;;;;;;18.67;5.05;;;16.50;99.90;;;;;;5085759;28;20480;-60
2023/10/07 01:31:18;;;;;;;14.07;5.70;;;16.60;99.90;;;;;;5082527;28;20040;-58
2023/10/07 01:33:47;;;;;;;14.50;5.35;;;16.50;99.90;;;;;;5108788;28;20043;-59
2023/10/07 01:36:20;;;;;;;15.30;5.15;;;16.70;99.90;;;;;;5111777;28;20035;-61
2023/10/07 01:38:52;;;;;;;14.68;5.03;;;16.60;99.90;;;;;;5111914;28;20104;-60
2023/10/07 01:41:20;;;;;;;14.93;5.25;;;16.70;99.90;;;;;;5111833;28;20031;-59
2023/10/07 01:44:05;;;;;;;18.02;5.80;;;16.60;99.90;;;;;;5094441;28;20114;-60
2023/10/07 01:46:32;;;;;;;21.98;5.68;;;16.60;99.90;;;;;;5086913;28;20476;-60
2023/10/07 01:49:04;;;;;;;16.58;5.30;;;16.50;99.90;;;;;;5082734;28;20476;-62
2023/10/07 01:51:30;;;;;;;20.02;6.25;;;16.50;99.90;;;;;;5085241;28;20491;-60
2023/10/07 01:54:03;;;;;;;17.40;5.05;;;16.60;99.90;;;;;;5087773;28;20035;-60
2023/10/07 01:56:31;;;;;;;20.92;5.82;;;16.70;99.90;;;;;;5083891;28;20410;-61
2023/10/07 01:59:04;;;;;;;15.68;5.57;;;16.60;99.90;;;;;;5081950;28;20115;-59
2023/10/07 02:01:30;;;;;;;16.52;4.57;;;16.70;99.90;;;;;;5116656;27;20036;-60
2023/10/07 02:04:00;;;;;;;14.82;5.22;;;16.70;99.90;;;;;;5085679;28;20166;-60
2023/10/07 02:06:26;;;;;;;14.57;5.53;;;16.50;99.90;;;;;;5082024;28;20044;-61
2023/10/07 02:08:54;;;;;;;16.40;5.15;;;16.60;99.90;;;;;;5083838;28;20057;-61
2023/10/07 02:11:30;;;;;;;18.05;5.30;;;16.60;99.90;;;;;;5083945;28;20387;-59
2023/10/07 02:13:56;;;;;;;15.63;5.30;;;16.70;99.90;;;;;;5082247;28;20029;-60
2023/10/07 02:16:27;;;;;;;21.75;6.10;;;16.80;99.90;;;;;;5087787;28;20032;-60
2023/10/07 02:18:52;;;;;;;17.92;6.22;;;16.60;99.90;;;;;;5084995;28;20043;-61
2023/10/07 02:21:22;;;;;;;18.17;5.68;;;16.80;99.90;;;;;;5080989;28;20051;-59
2023/10/07 02:23:49;;;;;;;20.27;4.70;;;16.80;99.90;;;;;;5085683;28;20048;-61
2023/10/07 02:28:44;;;;;;;19.33;5.78;;;16.80;99.90;;;;;;5083465;28;20402;-62
2023/10/07 02:31:15;;;;;;;14.32;5.82;;;16.80;99.90;;;;;;5082033;28;20491;-62
2023/10/07 02:33:42;;;;;;;17.23;5.93;;;16.80;99.90;;;;;;5085891;28;20122;-60
2023/10/07 02:36:27;;;;;;;18.55;5.75;;;17.00;99.90;;;;;;5085548;28;20508;-62
2023/10/07 02:39:00;;;;;;;18.10;5.95;;;17.00;99.90;;;;;;5079148;28;20106;-59
2023/10/07 02:41:26;;;;;;;19.33;5.47;;;17.00;99.90;;;;;;5087093;28;20090;-60
2023/10/07 02:43:52;;;;;;;17.70;5.63;;;16.90;99.90;;;;;;5090921;28;20471;-60
2023/10/07 02:49:04;;;;;;;16.48;5.53;;;16.90;99.90;;;;;;5113250;28;20130;-59
2023/10/07 02:51:29;;;;;;;19.02;5.60;;;16.90;99.90;;;;;;5115248;28;20471;-60
2023/10/07 02:54:04;;;;;;;16.45;5.60;;;17.10;99.90;;;;;;5092659;28;20028;-59
2023/10/07 02:56:35;;;;;;;17.02;6.13;;;16.90;99.90;;;;;;5093862;28;20148;-58
2023/10/07 02:59:22;;;;;;;17.88;5.63;;;16.90;99.90;;;;;;5093253;28;20079;-59
2023/10/07 03:02:12;;;;;;;17.98;5.43;;;16.90;99.90;;;;;;5093147;28;20044;-61
2023/10/07 03:04:36;;;;;;;16.17;5.28;;;17.00;99.90;;;;;;5093684;28;20079;-59
2023/10/07 03:07:14;;;;;;;16.85;5.38;;;16.90;99.90;;;;;;5113084;28;20122;-60
2023/10/07 03:09:54;;;;;;;18.58;5.88;;;17.10;99.90;;;;;;5114596;28;20131;-58
2023/10/07 03:12:30;;;;;;;16.40;5.78;;;16.90;99.90;;;;;;5114412;28;20043;-61
2023/10/07 03:15:04;;;;;;;15.63;5.70;;;17.00;99.90;;;;;;5114672;28;20036;-61
2023/10/07 03:17:37;;;;;;;14.55;5.72;;;17.00;99.90;;;;;;5114359;27;20478;-58
2023/10/07 03:26:03;;;;;;;17.20;5.68;;;16.90;99.90;;;;;;5093296;28;20048;-62
2023/10/07 03:28:51;;;;;;;20.00;4.55;;;17.00;99.90;;;;;;5113600;28;20043;-60
2023/10/07 03:31:20;;;;;;;19.33;5.68;;;16.90;99.90;;;;;;5114177;28;20039;-60
2023/10/07 03:33:51;;;;;;;18.23;5.75;;;17.10;99.90;;;;;;5114328;28;20039;-61
2023/10/07 03:39:09;;;;;;;17.25;5.95;;;16.90;99.90;;;;;;5093818;28;20047;-59
2023/10/07 03:41:35;;;;;;;14.95;5.60;;;17.10;99.90;;;;;;5092799;28;20059;-60
2023/10/07 03:44:04;;;;;;;16.70;5.20;;;16.90;99.90;;;;;;5104650;28;20058;-60
2023/10/07 03:46:30;;;;;;;16.88;5.13;;;17.10;99.90;;;;;;5092885;28;20542;-59
2023/10/07 03:48:56;;;;;;;16.17;5.30;;;16.90;99.90;;;;;;5092799;28;20284;-61
2023/10/07 03:51:22;;;;;;;16.60;6.13;;;17.10;99.90;;;;;;5110591;28;20035;-60
2023/10/07 03:53:55;;;;;;;18.10;6.32;;;17.10;99.90;;;;;;5111443;28;20046;-60
2023/10/07 03:56:21;;;;;;;16.90;5.80;;;17.00;99.90;;;;;;5102468;28;20036;-60
2023/10/07 03:58:47;;;;;;;21.58;6.28;;;16.90;99.90;;;;;;5112904;28;20044;-59
2023/10/07 04:01:22;;;;;;;15.98;5.95;;;17.00;99.90;;;;;;5113799;28;20031;-59
2023/10/07 04:03:50;;;;;;;19.15;5.90;;;17.20;99.90;;;;;;5112537;28;20111;-61
2023/10/07 04:06:21;;;;;;;17.20;6.07;;;17.20;99.90;;;;;;5113733;28;20177;-58
2023/10/07 04:08:53;;;;;;;14.40;5.40;;;17.00;99.90;;;;;;5113228;28;20747;-60
2023/10/07 04:11:25;;;;;;;20.98;5.53;;;17.10;99.90;;;;;;5112191;28;20046;-61
2023/10/07 04:13:53;;;;;;;17.80;5.72;;;17.60;99.90;;;;;;5091450;28;20035;-59
2023/10/07 04:16:23;;;;;;;19.65;4.53;;;17.30;99.90;;;;;;5092229;28;20036;-59
2023/10/07 04:18:54;;;;;;;24.08;6.07;;;17.10;99.90;;;;;;5091791;28;20055;-61
2023/10/07 04:21:24;;;;;;;19.17;5.60;;;17.30;99.90;;;;;;5092174;28;20032;-61
2023/10/07 04:23:50;;;;;;;19.75;5.30;;;17.20;99.90;;;;;;5089725;28;20028;-60
2023/10/07 04:26:21;;;;;;;17.08;5.32;;;17.30;99.90;;;;;;5092798;28;20469;-60
2023/10/07 04:28:48;;;;;;;15.73;5.38;;;17.10;99.90;;;;;;5090625;28;20043;-61
2023/10/07 04:31:17;;;;;;;15.82;4.95;;;17.40;99.90;;;;;;5092107;28;20054;-58
2023/10/07 04:33:53;;;;;;;15.85;5.43;;;17.30;99.90;;;;;;5092149;28;20051;-59
2023/10/07 04:36:33;;;;;;;19.58;5.05;;;17.30;99.90;;;;;;5092736;28;20036;-61
2023/10/07 04:39:08;;;;;;;18.33;4.80;;;17.10;99.90;;;;;;5091873;28;20403;-60
2023/10/07 04:41:36;;;;;;;11.73;4.88;;;17.20;99.90;;;;;;5090512;28;20148;-60
2023/10/07 04:46:56;;;;;;;18.05;5.43;;;17.10;99.90;;;;;;5091639;28;20040;-60
2023/10/07 04:49:28;;;;;;;15.32;5.35;;;17.30;99.90;;;;;;5090805;28;20402;-60
2023/10/07 04:51:58;;;;;;;12.50;5.28;;;17.10;99.90;;;;;;5091396;28;20447;-60
2023/10/07 04:54:24;;;;;;;17.15;5.68;;;17.10;99.90;;;;;;5109490;28;20039;-59
2023/10/07 04:57:00;;;;;;;15.05;5.32;;;17.00;99.90;;;;;;5112357;28;20045;-60
2023/10/07 04:59:27;;;;;;;15.35;5.70;;;17.00;99.90;;;;;;5112073;28;20040;-61
2023/10/07 05:01:56;;;;;;;15.45;5.43;;;17.20;99.90;;;;;;5091863;28;20040;-61
2023/10/07 05:04:24;;;;;;;17.95;5.78;;;17.10;99.90;;;;;;5110661;28;20036;-59
2023/10/07 05:06:51;;;;;;;20.35;5.50;;;17.10;99.90;;;;;;5108908;28;20036;-61
2023/10/07 05:09:21;;;;;;;16.15;5.15;;;17.10;99.90;;;;;;5089401;28;20079;-59
2023/10/07 05:11:47;;;;;;;12.90;5.10;;;17.00;99.90;;;;;;5091649;28;20032;-59
2023/10/07 05:14:17;;;;;;;15.05;5.15;;;16.80;99.90;;;;;;5089807;28;20391;-61
2023/10/07 05:16:46;;;;;;;19.60;5.72;;;16.80;99.90;;;;;;5091541;28;20024;-60
2023/10/07 05:19:27;;;;;;;16.48;6.10;;;17.00;99.90;;;;;;5088080;28;20032;-61
2023/10/07 05:22:05;;;;;;;17.15;6.15;;;16.90;99.90;;;;;;5091797;28;20486;-60
2023/10/07 05:24:32;;;;;;;14.25;5.55;;;17.00;99.90;;;;;;5092413;28;20032;-59
2023/10/07 05:27:01;;;;;;;16.17;5.50;;;16.80;99.90;;;;;;5091234;28;20429;-61
2023/10/07 05:29:31;;;;;;;17.00;5.80;;;17.00;99.90;;;;;;5090099;28;20059;-59
2023/10/07 05:31:57;;;;;;;18.10;5.90;;;17.00;99.90;;;;;;5090933;28;20039;-60
2023/10/07 05:34:28;;;;;;;16.80;6.97;;;17.00;99.90;;;;;;5088501;28;20506;-59
2023/10/07 05:37:03;;;;;;;17.77;6.15;;;16.80;99.90;;;;;;5089969;28;20062;-60
2023/10/07 05:39:28;;;;;;;20.23;6.38;;;16.90;99.90;;;;;;5090988;28;20074;-60
2023/10/07 05:41:54;;;;;;;24.30;6.22;;;16.90;99.90;;;;;;5108214;28;20128;-59
2023/10/07 05:44:20;;;;;;;19.65;5.57;;;16.70;99.90;;;;;;5109916;28;20054;-61
2023/10/07 05:46:46;;;;;;;18.05;5.80;;;17.00;99.90;;;;;;5111725;28;20044;-60
2023/10/07 05:49:11;;;;;;;20.77;6.00;;;16.70;99.90;;;;;;5094152;28;20048;-62
2023/10/07 05:51:37;;;;;;;21.25;6.60;;;16.90;99.90;;;;;;5091460;28;20465;-61
2023/10/07 05:54:05;;;;;;;17.65;5.97;;;16.80;99.90;;;;;;5088802;28;20274;-61
2023/10/07 05:56:31;;;;;;;17.75;5.75;;;16.70;99.90;;;;;;5091336;28;20036;-61
2023/10/07 05:58:57;;;;;;;17.27;6.10;;;16.70;99.90;;;;;;5090897;28;20554;-58
2023/10/07 06:01:23;;;;;;;15.45;5.47;;;16.70;99.90;;;;;;5091220;28;20052;-60
2023/10/07 06:03:51;;;;;;;19.13;5.85;;;16.90;99.90;;;;;;5091128;28;20047;-58
2023/10/07 06:06:18;;;;;;;17.30;5.55;;;16.90;99.90;;;;;;5109570;28;20089;-60
2023/10/07 06:08:43;;;;;;;16.77;5.75;;;17.00;99.90;;;;;;5111154;28;20098;-60
2023/10/07 06:11:10;;;;;;;16.58;5.45;;;17.00;99.90;;;;;;5094459;28;20071;-59
2023/10/07 06:13:37;;;;;;;16.80;5.50;;;16.90;99.90;;;;;;5090454;28;20032;-60
2023/10/07 06:16:06;;;;;;;14.82;5.15;;;16.90;99.90;;;;;;5088617;28;20042;-60
2023/10/07 06:18:34;;;;;;;17.42;5.13;;;17.10;99.90;;;;;;5100111;28;20401;-61
2023/10/07 06:23:45;;;;;;;16.23;6.25;;;17.10;99.90;;;;;;5090944;28;21288;-59
2023/10/07 06:26:12;;;;;;;19.42;6.32;;;16.90;99.90;;;;;;5093901;28;20039;-60
2023/10/07 06:28:44;;;;;;;16.92;5.35;;;17.20;99.90;;;;;;5090691;28;20521;-58
2023/10/07 06:31:10;;;;;;;20.27;6.25;;;17.20;99.90;;;;;;5090722;28;20076;-60
2023/10/07 06:33:44;;;;;;;18.40;5.75;;;17.00;99.90;;;;;;5091547;28;20050;-59
2023/10/07 06:36:14;;;;;;;15.95;5.32;;;17.00;99.90;;;;;;5109952;28;20611;-58
2023/10/07 06:38:52;;;;;;;16.48;5.88;;;17.20;99.90;;;;;;5089755;28;20067;-60
2023/10/07 06:41:18;;;;;;;18.13;6.00;;;17.00;99.90;;;;;;5090626;28;20039;-60
2023/10/07 06:43:50;;;;;;;23.55;6.00;;;16.90;99.90;;;;;;5090829;28;20113;-60
2023/10/07 06:46:20;;;;;;;20.15;5.80;;;17.10;99.90;;;;;;5090464;28;20476;-58
2023/10/07 06:48:49;;;;;;;21.38;6.85;;;17.20;99.90;;;;;;5107151;28;20097;-59
2023/10/07 06:51:16;;;;;;;16.10;5.72;;;17.00;99.90;;;;;;5089326;28;20089;-60
2023/10/07 06:53:45;;;;;;;17.27;5.93;;;17.00;99.90;;;;;;5091709;28;20599;-61
2023/10/07 06:56:21;;;;;;;19.42;6.28;;;17.20;99.90;;;;;;5110948;28;20036;-62
2023/10/07 06:58:53;;;;;;;16.70;5.55;;;17.20;99.90;;;;;;5083189;28;20052;-59
2023/10/07 07:04:11;;;;;;;19.38;5.95;;;17.10;99.90;;;;;;5082292;28;20060;-61
2023/10/07 07:06:42;;;;;;;20.92;6.43;;;17.30;99.90;;;;;;5081636;28;20036;-59
2023/10/07 07:12:04;;;;;;;18.50;6.20;;;17.40;99.90;;;;;;5082289;28;20065;-60
2023/10/07 07:14:31;;;;;;;16.98;5.55;;;17.20;99.90;;;;;;5081756;28;20035;-61
2023/10/07 07:22:42;;;;;;;16.52;4.97;;;17.40;99.90;;;;;;5078336;28;20050;-60
2023/10/07 07:25:11;;;;;;;18.80;5.82;;;17.50;99.90;;;;;;5082128;28;20040;-59
2023/10/07 07:27:48;;;;;;;16.20;4.75;;;17.70;99.90;;;;;;5081982;28;20039;-61
2023/10/07 07:30:30;;;;;;;16.10;5.28;;;17.80;99.90;;;;;;5081859;28;20064;-60
2023/10/07 07:33:11;;;;;;;20.42;6.00;;;17.80;99.90;;;;;;5096569;28;20036;-62
2023/10/07 07:35:44;;;;;;;17.83;5.53;;;17.90;99.90;;;;;;5085482;28;20467;-61
2023/10/07 07:40:46;;;;;;;16.48;4.97;;;17.80;99.90;;;;;;5086165;28;20055;-63
2023/10/07 07:43:13;;;;;;;18.58;5.40;;;17.80;99.90;;;;;;5084275;28;20050;-61
2023/10/07 07:45:40;;;;;;;17.77;5.50;;;17.80;99.90;;;;;;5083788;28;20039;-60
2023/10/07 07:48:11;;;;;;;15.00;5.55;;;17.70;99.90;;;;;;5082842;28;20104;-59
2023/10/07 07:50:39;;;;;;;21.83;6.07;;;17.70;99.90;;;;;;5085396;28;20468;-60
2023/10/07 07:53:14;;;;;;;25.05;5.47;;;17.80;99.90;;;;;;5085384;28;20089;-61
2023/10/07 07:55:46;;;;;;;15.68;4.90;;;17.80;99.90;;;;;;5085117;28;20506;-61
2023/10/07 07:58:11;;;;;;;15.82;4.57;;;18.00;99.90;;;;;;5084337;28;20103;-59
2023/10/07 08:00:44;;;;;;;16.88;5.35;;;18.00;99.90;;;;;;5082932;28;20158;-59
2023/10/07 08:03:10;;;;;;;16.40;5.60;;;17.90;99.90;;;;;;5080011;28;20035;-60
2023/10/07 08:05:39;;;;;;;14.88;5.15;;;18.20;99.90;;;;;;5079563;28;20122;-60
2023/10/07 08:08:18;;;;;;;15.75;5.05;;;18.10;99.90;;;;;;5093918;28;20048;-60
2023/10/07 08:10:48;;;;;;;16.30;5.15;;;18.10;99.90;;;;;;5080461;28;20044;-59
2023/10/07 08:13:17;;;;;;;15.63;4.80;;;18.00;99.90;;;;;;5079223;28;20590;-61
2023/10/07 08:15:47;;;;;;;17.77;5.63;;;18.30;99.90;;;;;;5081566;28;20094;-60
2023/10/07 08:18:13;;;;;;;14.65;5.53;;;18.20;99.90;;;;;;5073722;28;20384;-58
2023/10/07 08:20:44;;;;;;;16.98;5.28;;;18.40;99.90;;;;;;5079573;28;20032;-60
2023/10/07 08:23:29;;;;;;;20.38;5.05;;;18.30;99.90;;;;;;5082228;28;20471;-60
2023/10/07 08:26:08;;;;;;;18.15;4.63;;;18.40;99.90;;;;;;5077811;28;20118;-58
2023/10/07 08:36:32;;;;;;;13.52;4.03;;;18.70;99.90;;;;;;5078427;28;20358;-60
2023/10/07 08:38:59;;;;;;;13.80;4.43;;;18.70;99.90;;;;;;5079980;28;20044;-61
2023/10/07 08:41:28;;;;;;;14.10;4.57;;;18.90;99.90;;;;;;5076765;28;20045;-59
2023/10/07 08:44:14;;;;;;;17.63;4.43;;;18.90;99.90;;;;;;5076376;28;20035;-60
2023/10/07 08:46:45;;;;;;;13.82;4.65;;;19.00;99.90;;;;;;5079439;28;20403;-61
2023/10/07 08:49:24;;;;;;;13.90;4.18;;;19.20;99.90;;;;;;5103323;27;20128;-59
2023/10/07 08:51:54;;;;;;;13.75;4.10;;;19.20;99.90;;;;;;5085163;28;20043;-60
2023/10/07 08:54:31;;;;;;;13.52;4.07;;;19.30;99.90;;;;;;5085243;28;20024;-61
2023/10/07 08:57:14;;;;;;;12.90;4.35;;;19.30;99.90;;;;;;5080563;28;20032;-60
2023/10/07 08:59:42;;;;;;;13.57;4.30;;;19.20;99.90;;;;;;5085513;28;20051;-62
2023/10/07 09:02:23;;;;;;;15.90;4.05;;;19.30;99.90;;;;;;5090649;28;20044;-61
2023/10/07 09:04:50;;;;;;;13.63;4.20;;;19.40;99.90;;;;;;5089700;28;20387;-60
2023/10/07 09:07:19;;;;;;;13.52;4.50;;;19.30;99.90;;;;;;5090560;28;20036;-59
2023/10/07 09:09:45;;;;;;;12.98;4.15;;;19.30;99.90;;;;;;5089852;28;20055;-60
2023/10/07 09:14:58;;;;;;;13.25;3.75;;;19.50;99.90;;;;;;5112200;28;20050;-60
2023/10/07 09:17:26;;;;;;;12.65;3.42;;;19.50;99.90;;;;;;5111861;28;21202;-60
2023/10/07 09:19:57;;;;;;;12.00;3.55;;;19.60;99.90;;;;;;5112120;28;20051;-60
2023/10/07 09:22:24;;;;;;;11.38;3.35;;;19.60;99.90;;;;;;5112042;28;20038;-61
2023/10/07 09:25:08;;;;;;;10.82;3.80;;;19.80;99.90;;;;;;5110771;28;20077;-61
2023/10/07 09:27:37;;;;;;;13.73;3.90;;;19.90;99.90;;;;;;5100591;28;20545;-60
2023/10/07 09:32:55;;;;;;;13.65;4.05;;;20.10;99.90;;;;;;5091468;28;20032;-60
2023/10/07 09:35:25;;;;;;;14.90;4.10;;;20.10;99.90;;;;;;5091473;28;20043;-61
2023/10/07 09:37:59;;;;;;;15.98;4.45;;;20.20;99.90;;;;;;5090870;28;20368;-61
2023/10/07 09:43:33;;;;;;;14.43;3.88;;;20.20;99.90;;;;;;5091285;28;20070;-59
2023/10/07 09:45:58;;;;;;;16.42;4.30;;;20.20;99.90;;;;;;5109753;28;20487;-61
2023/10/07 09:48:33;;;;;;;13.60;3.92;;;20.30;99.90;;;;;;5111077;28;20051;-60
2023/10/07 09:50:59;;;;;;;14.00;4.18;;;20.30;99.90;;;;;;5111454;28;20088;-59
2023/10/07 09:53:41;;;;;;;13.60;3.80;;;20.20;99.90;;;;;;5111739;28;20084;-62
2023/10/07 09:56:24;;;;;;;11.05;3.70;;;20.10;99.90;;;;;;5111327;28;20115;-61
2023/10/07 09:59:18;;;;;;;13.38;3.88;;;20.00;99.90;;;;;;5102510;28;20376;-61
2023/10/07 10:02:31;;;;;;;13.65;4.80;;;20.00;99.90;;;;;;5090159;28;20101;-60
2023/10/07 10:05:35;;;;;;;17.77;4.38;;;19.90;99.90;;;;;;5091296;28;20040;-61
2023/10/07 10:08:27;;;;;;;12.77;4.35;;;19.70;99.90;;;;;;5090792;28;20062;-61
2023/10/07 10:10:58;;;;;;;14.73;4.20;;;19.60;99.90;;;;;;5090278;28;20094;-59
2023/10/07 10:16:14;;;;;;;12.25;4.00;;;19.50;99.90;;;;;;5111477;28;20440;-62
2023/10/07 10:19:11;;;;;;;11.35;4.10;;;19.50;99.90;;;;;;5110824;28;20131;-61
2023/10/07 10:21:37;;;;;;;13.27;4.43;;;19.50;99.90;;;;;;5111818;28;20462;-62
2023/10/07 10:24:03;;;;;;;13.82;4.10;;;19.50;99.90;;;;;;5080443;28;20052;-60
2023/10/07 10:26:33;;;;;;;15.07;4.35;;;19.50;99.90;;;;;;5074370;28;20040;-61
2023/10/07 10:29:03;;;;;;;12.45;3.72;;;19.60;99.90;;;;;;5086977;28;20044;-61
2023/10/07 10:31:34;;;;;;;14.32;5.00;;;19.60;99.90;;;;;;5090625;28;20051;-60
2023/10/07 10:34:05;;;;;;;16.48;4.32;;;19.60;99.90;;;;;;5076280;28;20052;-61
2023/10/07 10:36:36;;;;;;;12.23;4.30;;;19.60;99.90;;;;;;5087941;28;20073;-61
2023/10/07 10:39:05;;;;;;;15.38;4.75;;;19.70;99.90;;;;;;5091364;28;20085;-59
2023/10/07 10:41:32;;;;;;;18.17;5.85;;;19.80;99.90;;;;;;5081977;28;20051;-63
2023/10/07 10:44:10;;;;;;;13.65;4.10;;;19.90;99.90;;;;;;5088302;28;20091;-62
2023/10/07 10:46:46;;;;;;;15.32;4.15;;;19.80;99.90;;;;;;5081473;28;20082;-63
2023/10/07 10:49:15;;;;;;;13.52;4.53;;;19.90;99.90;;;;;;5079557;28;20061;-62
2023/10/07 10:51:46;;;;;;;13.15;4.43;;;19.90;99.90;;;;;;5082311;28;20150;-61
2023/10/07 10:54:15;;;;;;;13.52;4.80;;;19.80;99.90;;;;;;5085466;28;20042;-62
2023/10/07 10:56:55;;;;;;;15.25;4.35;;;19.80;99.90;;;;;;5081951;28;20158;-60
2023/10/07 10:59:35;;;;;;;15.95;5.00;;;19.90;99.90;;;;;;5081884;28;20090;-61
2023/10/07 11:02:01;;;;;;;15.52;4.82;;;20.00;99.90;;;;;;5084593;28;20395;-59
2023/10/07 11:04:29;;;;;;;17.65;4.20;;;20.10;99.90;;;;;;5082458;28;20043;-60
2023/10/07 11:06:55;;;;;;;19.35;5.22;;;20.10;99.90;;;;;;5086538;28;20074;-60
2023/10/07 11:09:34;;;;;;;15.98;4.40;;;20.10;99.90;;;;;;5085688;28;20127;-61
2023/10/07 11:12:08;;;;;;;16.33;5.28;;;20.20;99.90;;;;;;5088263;28;20483;-60
2023/10/07 11:14:38;;;;;;;14.45;4.40;;;20.30;99.90;;;;;;5088016;28;20037;-61
2023/10/07 11:17:04;;;;;;;12.65;3.92;;;20.30;99.90;;;;;;5115690;27;20045;-60
2023/10/07 11:19:30;;;;;;;13.90;4.47;;;20.30;99.90;;;;;;5087118;28;20093;-62
2023/10/07 11:21:57;;;;;;;15.77;4.57;;;20.30;99.90;;;;;;5087631;28;20507;-60
2023/10/07 11:24:30;;;;;;;14.52;5.05;;;20.20;99.90;;;;;;5088457;28;20123;-60
2023/10/07 11:26:59;;;;;;;11.10;4.13;;;20.30;99.90;;;;;;5086946;28;20146;-60
2023/10/07 11:29:32;;;;;;;10.77;3.67;;;20.50;99.90;;;;;;5085233;28;20502;-60
2023/10/07 11:31:59;;;;;;;14.20;4.35;;;20.70;99.90;;;;;;5088909;28;20051;-60
2023/10/07 11:34:37;;;;;;;17.70;4.90;;;20.80;99.90;;;;;;5089329;28;20043;-61
2023/10/07 11:37:13;;;;;;;15.93;4.88;;;20.90;99.90;;;;;;5083791;28;20183;-59
2023/10/07 11:39:46;;;;;;;13.90;4.70;;;20.90;99.90;;;;;;5089901;28;20096;-59
2023/10/07 11:42:17;;;;;;;15.30;4.45;;;20.90;99.90;;;;;;5089000;28;20059;-60
2023/10/07 11:44:54;;;;;;;15.93;5.00;;;21.00;99.90;;;;;;5086060;28;20051;-60
2023/10/07 11:47:20;;;;;;;14.43;4.25;;;21.10;99.90;;;;;;5087226;28;20028;-62
2023/10/07 11:49:46;;;;;;;16.20;4.78;;;21.00;99.90;;;;;;5088930;28;20043;-60
2023/10/07 11:52:13;;;;;;;14.98;4.63;;;21.00;99.90;;;;;;5086693;28;20039;-60
2023/10/07 11:54:39;;;;;;;15.05;4.47;;;20.90;99.90;;;;;;5083540;28;20029;-61
2023/10/07 11:57:06;;;;;;;14.27;4.40;;;20.80;99.90;;;;;;5088886;28;20047;-63
2023/10/07 11:59:41;;;;;;;13.35;4.68;;;20.80;99.90;;;;;;5087769;28;20036;-61
2023/10/07 12:02:10;;;;;;;16.00;5.05;;;21.00;99.90;;;;;;5084298;28;20397;-62
2023/10/07 12:04:39;;;;;;;14.07;4.35;;;21.10;99.90;;;;;;5089094;28;20048;-60
2023/10/07 12:07:14;;;;;;;10.57;3.95;;;21.30;99.90;;;;;;5119749;27;20040;-58
2023/10/07 12:09:46;;;;;;;13.63;4.30;;;21.20;99.90;;;;;;5083511;28;20044;-62
2023/10/07 12:12:13;;;;;;;12.70;4.20;;;21.30;99.90;;;;;;5091069;28;20502;-57
2023/10/07 12:14:39;;;;;;;10.57;3.92;;;21.40;99.90;;;;;;5092466;28;20078;-61
2023/10/07 12:17:05;;;;;;;13.70;4.38;;;21.40;99.90;;;;;;5092456;28;20055;-60
2023/10/07 12:19:32;;;;;;;15.63;4.72;;;21.50;99.90;;;;;;5091584;28;20044;-60
2023/10/07 12:21:59;;;;;;;16.08;4.57;;;21.50;99.90;;;;;;5093197;28;20075;-60
2023/10/07 12:24:26;;;;;;;12.43;3.85;;;21.60;99.90;;;;;;5092602;28;20051;-60
2023/10/07 12:26:52;;;;;;;12.80;4.32;;;21.60;99.90;;;;;;5111895;28;20169;-60
2023/10/07 12:29:18;;;;;;;13.57;4.35;;;21.60;99.90;;;;;;5113213;28;20534;-60
2023/10/07 12:31:47;;;;;;;17.80;5.20;;;21.50;99.90;;;;;;5113277;27;20032;-59
2023/10/07 12:34:16;;;;;;;11.25;4.47;;;21.40;99.90;;;;;;5110447;28;20483;-59
2023/10/07 12:36:42;;;;;;;16.35;5.05;;;21.30;99.90;;;;;;5081397;28;20036;-61
2023/10/07 12:39:11;;;;;;;12.10;4.03;;;21.20;99.90;;;;;;5081595;28;20040;-60
2023/10/07 12:41:47;;;;;;;13.70;4.38;;;21.00;99.90;;;;;;5080141;28;20036;-61
2023/10/07 12:44:13;;;;;;;11.65;4.75;;;21.00;99.90;;;;;;5079275;28;20624;-60
2023/10/07 12:46:41;;;;;;;13.95;4.28;;;20.90;99.90;;;;;;5082211;28;20499;-60
2023/10/07 12:49:13;;;;;;;13.70;4.68;;;21.00;99.90;;;;;;5081415;28;20073;-59
2023/10/07 12:51:42;;;;;;;14.27;4.78;;;21.20;99.90;;;;;;5077219;28;20488;-62
2023/10/07 12:54:09;;;;;;;13.63;4.25;;;21.30;99.90;;;;;;5076918;28;20391;-62
2023/10/07 12:56:38;;;;;;;14.63;4.85;;;21.40;99.90;;;;;;5079498;28;20188;-61
2023/10/07 12:59:17;;;;;;;13.50;4.38;;;21.40;99.90;;;;;;5071834;28;20044;-62
2023/10/07 13:01:51;;;;;;;15.23;4.45;;;21.30;99.90;;;;;;5076729;28;20162;-60
2023/10/07 13:04:25;;;;;;;15.68;4.38;;;21.20;99.90;;;;;;5079418;28;20096;-59
2023/10/07 13:07:00;;;;;;;15.73;4.85;;;21.00;99.90;;;;;;5077630;28;20074;-62
2023/10/07 13:09:30;;;;;;;14.15;5.07;;;20.80;99.90;;;;;;5078754;28;20058;-61
2023/10/07 13:11:57;;;;;;;12.77;4.30;;;20.90;99.90;;;;;;5079841;28;20054;-61
2023/10/07 13:14:26;;;;;;;12.13;4.55;;;21.00;99.90;;;;;;5077685;28;20524;-61
2023/10/07 13:16:58;;;;;;;15.30;4.45;;;21.60;99.90;;;;;;5077945;28;20059;-61
2023/10/07 13:19:30;;;;;;;13.95;4.47;;;21.00;99.90;;;;;;5103882;27;20509;-59
2023/10/07 13:21:59;;;;;;;13.52;4.40;;;21.00;99.90;;;;;;5077135;28;20036;-61
2023/10/07 13:24:26;;;;;;;13.70;4.50;;;21.00;99.90;;;;;;5077812;28;20062;-58
2023/10/07 13:26:52;;;;;;;11.15;4.20;;;20.90;99.90;;;;;;5080177;28;20044;-60
2023/10/07 13:29:18;;;;;;;21.83;4.60;;;20.90;99.90;;;;;;5079385;28;20048;-59
2023/10/07 13:31:43;;;;;;;13.52;4.40;;;20.80;99.90;;;;;;5080649;28;20121;-58
2023/10/07 13:34:10;;;;;;;15.15;4.32;;;20.80;99.90;;;;;;5080039;28;20040;-62
2023/10/07 13:36:41;;;;;;;14.48;4.65;;;20.70;99.90;;;;;;5077332;28;20047;-60
2023/10/07 13:39:15;;;;;;;14.32;4.75;;;20.70;99.90;;;;;;5078717;28;20130;-59
2023/10/07 13:41:43;;;;;;;19.17;4.65;;;20.60;99.90;;;;;;5079811;28;20032;-59
2023/10/07 13:44:10;;;;;;;14.82;4.15;;;20.50;99.90;;;;;;5078274;28;20711;-60
2023/10/07 13:46:36;;;;;;;15.57;4.70;;;20.50;99.90;;;;;;5079216;28;20090;-61
2023/10/07 13:49:02;;;;;;;11.35;4.38;;;20.50;99.90;;;;;;5080107;28;20495;-62
2023/10/07 13:51:31;;;;;;;13.63;4.32;;;20.40;99.90;;;;;;5078750;28;20162;-59
2023/10/07 13:56:54;;;;;;;;;;;20.10;99.90;;;;;;5079388;28;20048;-60
2023/10/07 13:59:21;;;;;;;14.00;4.75;;;20.00;99.90;;;;;;5079098;28;20243;-61